Cap San Sounio — 9V2240 — position and weather

sailwx.info

Track history (hours):
 
Tides and Currents Weather Stations Pressure Air Temp Water Temp Dewpoint Dewpoint Depression Visibility Wind Speed Wind Dir Waves Ship Positions

Cap San Sounio

Last reported at 2017-Nov-17 12:51 UTC. Time now 2017-Nov-18 10:30 UTC.
Position N 39°60' W 028°17'.

Length 333 m; draft 12.3 m.

Type: Cargo ship. MMSI: 564716000.

Date/timePositionNaut miles runAvg speedWind from/ knotsBaromVisibWave heightAir tempDewpointWater temp
2017-Nov-17 12:51N 39°60' W 028°17'719.5
2017-Nov-17 12:30N 39°55' W 028°23'1019.7
2017-Nov-17 12:00N 39°49' W 028°33'1019.5
2017-Nov-17 11:31N 39°43' W 028°43'1019.8
2017-Nov-17 11:00N 39°37' W 028°53'1019.4
2017-Nov-17 10:30N 39°31' W 029°03'1019.7
2017-Nov-17 10:00N 39°25' W 029°13'1019.7
2017-Nov-17 09:30N 39°18' W 029°23'1019.3
2017-Nov-17 09:00N 39°12' W 029°32'1019.4
2017-Nov-17 08:30N 39°06' W 029°42'1019.5
2017-Nov-17 08:00N 38°59' W 029°52'1019.3
2017-Nov-17 07:30N 38°56' W 030°03'1019.4
2017-Nov-17 07:00N 38°52' W 030°15'1019.5
2017-Nov-17 06:30N 38°49' W 030°26'1019.7
2017-Nov-17 06:00N 38°46' W 030°38'1019.5
2017-Nov-17 05:30N 38°42' W 030°50'1019.4
2017-Nov-17 05:00N 38°39' W 031°02'1519.3
2017-Nov-17 04:13N 38°33' W 031°20'418.8
2017-Nov-17 04:00N 38°32' W 031°24'3119.0
2017-Nov-17 02:24N 38°21' W 032°01'8919.5
2017-Nov-16 21:50N 37°47' W 033°45'  
2017-Nov-09 07:49N 10°34' W 075°42'414.0
2017-Nov-09 07:30N 10°29' W 075°43'714.0
2017-Nov-09 06:58N 10°22' W 075°43'612.7
2017-Nov-09 06:30N 10°19' W 075°38'5 9.5
2017-Nov-09 06:00N 10°19' W 075°33'3 6.6
2017-Nov-09 05:30N 10°22' W 075°32'1 2.2
2017-Nov-09 05:00N 10°23' W 075°31'0 0.0
2017-Nov-09 04:26N 10°23' W 075°31'0 0.0
2017-Nov-09 04:00N 10°23' W 075°31'0 0.0
2017-Nov-09 03:30N 10°23' W 075°31'0 0.0
2017-Nov-09 03:00N 10°23' W 075°31'0 0.0
2017-Nov-09 02:31N 10°23' W 075°31'0 0.0
2017-Nov-09 02:00N 10°23' W 075°31'0 0.0
2017-Nov-09 01:30N 10°23' W 075°31'0 0.0
2017-Nov-09 01:00N 10°23' W 075°31'0 0.0
2017-Nov-09 00:30N 10°23' W 075°31'0 0.0
2017-Nov-09 00:00N 10°23' W 075°31'0 0.0
2017-Nov-08 23:30N 10°23' W 075°31'0 0.0
2017-Nov-08 22:59N 10°23' W 075°31'0 0.0
2017-Nov-08 22:31N 10°23' W 075°31'0 0.0
2017-Nov-08 22:00N 10°23' W 075°31'0 0.0
2017-Nov-08 21:30N 10°23' W 075°31'0 0.0
2017-Nov-08 21:00N 10°23' W 075°31'0 0.0
2017-Nov-08 20:30N 10°23' W 075°31'0 0.0
2017-Nov-08 20:00N 10°23' W 075°31'0 0.0
2017-Nov-08 19:30N 10°23' W 075°31'0 0.0
2017-Nov-08 19:00N 10°23' W 075°31'0 0.0
2017-Nov-08 18:30N 10°23' W 075°31'0 0.0
2017-Nov-08 18:00N 10°23' W 075°31'0 0.0
2017-Nov-08 17:30N 10°23' W 075°31'0 0.0
2017-Nov-08 17:00N 10°23' W 075°31'0 0.1
2017-Nov-08 16:30N 10°23' W 075°31'0 0.0
2017-Nov-08 16:00N 10°23' W 075°31'0 0.0
2017-Nov-08 15:29N 10°23' W 075°31'0 0.0
2017-Nov-08 15:00N 10°23' W 075°31'0 0.0
2017-Nov-08 14:30N 10°23' W 075°31'0 0.0
2017-Nov-08 14:00N 10°23' W 075°31'0 0.0
2017-Nov-08 13:30N 10°23' W 075°31'0 0.0
2017-Nov-08 13:00N 10°23' W 075°31'0 0.0
2017-Nov-08 12:30N 10°23' W 075°31'0 0.0
2017-Nov-08 12:00N 10°23' W 075°31'0 0.0
2017-Nov-08 11:30N 10°23' W 075°31'0 0.0
2017-Nov-08 11:00N 10°23' W 075°31'1 1.3
2017-Nov-08 10:30N 10°22' W 075°31'4 7.6
2017-Nov-08 10:00N 10°19' W 075°33'4 7.9
2017-Nov-08 09:30N 10°19' W 075°37'7 4.6
2017-Nov-08 08:05N 10°18' W 075°44'0 5.5
2017-Nov-08 08:00N 10°18' W 075°44'2 4.5
2017-Nov-08 07:30N 10°18' W 075°47'3 6.2
2017-Nov-08 07:00N 10°17' W 075°50'3 6.9
2017-Nov-08 06:30N 10°16' W 075°53'  
Track history (hours):
 
Tides and Currents Weather Stations Pressure Air Temp Water Temp Dewpoint Dewpoint Depression Visibility Wind Speed Wind Dir Waves Ship Positions

Cap San Sounio

Last reported at 2017-Nov-17 12:51 UTC. Time now 2017-Nov-18 10:30 UTC.
Position N 39°60' W 028°17'.

Length 333 m; draft 12.3 m.

Type: Cargo ship. MMSI: 564716000.

Date/timePositionNaut miles runAvg speedWind from/ knotsBaromVisibWave heightAir tempDewpointWater temp
2017-Nov-17 12:51N 39°60' W 028°17'719.5
2017-Nov-17 12:30N 39°55' W 028°23'1019.7
2017-Nov-17 12:00N 39°49' W 028°33'1019.5
2017-Nov-17 11:31N 39°43' W 028°43'1019.8
2017-Nov-17 11:00N 39°37' W 028°53'1019.4
2017-Nov-17 10:30N 39°31' W 029°03'1019.7
2017-Nov-17 10:00N 39°25' W 029°13'1019.7
2017-Nov-17 09:30N 39°18' W 029°23'1019.3
2017-Nov-17 09:00N 39°12' W 029°32'1019.4
2017-Nov-17 08:30N 39°06' W 029°42'1019.5
2017-Nov-17 08:00N 38°59' W 029°52'1019.3
2017-Nov-17 07:30N 38°56' W 030°03'1019.4
2017-Nov-17 07:00N 38°52' W 030°15'1019.5
2017-Nov-17 06:30N 38°49' W 030°26'1019.7
2017-Nov-17 06:00N 38°46' W 030°38'1019.5
2017-Nov-17 05:30N 38°42' W 030°50'1019.4
2017-Nov-17 05:00N 38°39' W 031°02'1519.3
2017-Nov-17 04:13N 38°33' W 031°20'418.8
2017-Nov-17 04:00N 38°32' W 031°24'3119.0
2017-Nov-17 02:24N 38°21' W 032°01'8919.5
2017-Nov-16 21:50N 37°47' W 033°45'  
2017-Nov-09 07:49N 10°34' W 075°42'414.0
2017-Nov-09 07:30N 10°29' W 075°43'714.0
2017-Nov-09 06:58N 10°22' W 075°43'612.7
2017-Nov-09 06:30N 10°19' W 075°38'5 9.5
2017-Nov-09 06:00N 10°19' W 075°33'3 6.6
2017-Nov-09 05:30N 10°22' W 075°32'1 2.2
2017-Nov-09 05:00N 10°23' W 075°31'0 0.0
2017-Nov-09 04:26N 10°23' W 075°31'0 0.0
2017-Nov-09 04:00N 10°23' W 075°31'0 0.0
2017-Nov-09 03:30N 10°23' W 075°31'0 0.0
2017-Nov-09 03:00N 10°23' W 075°31'0 0.0
2017-Nov-09 02:31N 10°23' W 075°31'0 0.0
2017-Nov-09 02:00N 10°23' W 075°31'0 0.0
2017-Nov-09 01:30N 10°23' W 075°31'0 0.0
2017-Nov-09 01:00N 10°23' W 075°31'0 0.0
2017-Nov-09 00:30N 10°23' W 075°31'0 0.0
2017-Nov-09 00:00N 10°23' W 075°31'0 0.0
2017-Nov-08 23:30N 10°23' W 075°31'0 0.0
2017-Nov-08 22:59N 10°23' W 075°31'0 0.0
2017-Nov-08 22:31N 10°23' W 075°31'0 0.0
2017-Nov-08 22:00N 10°23' W 075°31'0 0.0
2017-Nov-08 21:30N 10°23' W 075°31'0 0.0
2017-Nov-08 21:00N 10°23' W 075°31'0 0.0
2017-Nov-08 20:30N 10°23' W 075°31'0 0.0
2017-Nov-08 20:00N 10°23' W 075°31'0 0.0
2017-Nov-08 19:30N 10°23' W 075°31'0 0.0
2017-Nov-08 19:00N 10°23' W 075°31'0 0.0
2017-Nov-08 18:30N 10°23' W 075°31'0 0.0
2017-Nov-08 18:00N 10°23' W 075°31'0 0.0
2017-Nov-08 17:30N 10°23' W 075°31'0 0.0
2017-Nov-08 17:00N 10°23' W 075°31'0 0.1
2017-Nov-08 16:30N 10°23' W 075°31'0 0.0
2017-Nov-08 16:00N 10°23' W 075°31'0 0.0
2017-Nov-08 15:29N 10°23' W 075°31'0 0.0
2017-Nov-08 15:00N 10°23' W 075°31'0 0.0
2017-Nov-08 14:30N 10°23' W 075°31'0 0.0
2017-Nov-08 14:00N 10°23' W 075°31'0 0.0
2017-Nov-08 13:30N 10°23' W 075°31'0 0.0
2017-Nov-08 13:00N 10°23' W 075°31'0 0.0
2017-Nov-08 12:30N 10°23' W 075°31'0 0.0
2017-Nov-08 12:00N 10°23' W 075°31'0 0.0
2017-Nov-08 11:30N 10°23' W 075°31'0 0.0
2017-Nov-08 11:00N 10°23' W 075°31'1 1.3
2017-Nov-08 10:30N 10°22' W 075°31'4 7.6
2017-Nov-08 10:00N 10°19' W 075°33'4 7.9
2017-Nov-08 09:30N 10°19' W 075°37'7 4.6
2017-Nov-08 08:05N 10°18' W 075°44'0 5.5
2017-Nov-08 08:00N 10°18' W 075°44'2 4.5
2017-Nov-08 07:30N 10°18' W 075°47'3 6.2
2017-Nov-08 07:00N 10°17' W 075°50'3 6.9
2017-Nov-08 06:30N 10°16' W 075°53'  

Dump ship's entire track history